Time;durP1;ratioP1;P1;durP2;ratioP2;P2;SDS_P1;SDS_P2;PMS_P1;PMS_P2;Temp;Humidity;BMP_temperature;BMP_pressure;BME280_temperature;BME280_humidity;BME280_pressure;Samples;Min_cycle;Max_cycle;Signal;HPM_P1;HPM_P2
2023/05/21 00:00:59;;;;;;;6.95;2.45;;;;;;;;;;6275956;22;20004;-95
2023/05/21 00:03:26;;;;;;;5.28;2.20;;;;;;;;;;6275354;22;20054;-96
2023/05/21 00:05:53;;;;;;;3.72;2.15;;;;;;;;;;6274608;22;20395;-96
2023/05/21 00:08:19;;;;;;;3.85;2.17;;;;;;;;;;6273743;22;20048;-95
2023/05/21 00:10:45;;;;;;;3.88;2.60;;;;;;;;;;6272265;22;20008;-96
2023/05/21 00:13:10;;;;;;;4.57;2.33;;;;;;;;;;6275211;22;20050;-95
2023/05/21 00:15:35;;;;;;;3.72;2.15;;;;;;;;;;6274992;22;20000;-95
2023/05/21 00:18:01;;;;;;;6.75;2.30;;;;;;;;;;6275878;22;20004;-96
2023/05/21 00:20:28;;;;;;;4.57;2.30;;;;;;;;;;6275637;22;20161;-96
2023/05/21 00:22:55;;;;;;;4.40;2.70;;;;;;;;;;6274991;22;20011;-96
2023/05/21 00:25:20;;;;;;;8.70;2.75;;;;;;;;;;6273928;22;20007;-95
2023/05/21 00:27:46;;;;;;;5.53;2.55;;;;;;;;;;6274743;22;20026;-95
2023/05/21 00:30:11;;;;;;;7.72;3.42;;;;;;;;;;6272789;22;20305;-96
2023/05/21 00:32:36;;;;;;;4.60;2.60;;;;;;;;;;6274773;22;20487;-95
2023/05/21 00:35:02;;;;;;;3.72;2.42;;;;;;;;;;6276567;22;20011;-95
2023/05/21 00:37:31;;;;;;;6.93;3.30;;;;;;;;;;6273974;22;20045;-96
2023/05/21 00:39:57;;;;;;;5.97;3.22;;;;;;;;;;6275670;22;19995;-96
2023/05/21 00:42:26;;;;;;;5.55;3.33;;;;;;;;;;6274896;22;20030;-96
2023/05/21 00:44:52;;;;;;;7.40;3.28;;;;;;;;;;6276521;22;20035;-95
2023/05/21 00:47:20;;;;;;;7.50;3.70;;;;;;;;;;6274354;22;20008;-96
2023/05/21 00:49:47;;;;;;;6.05;3.35;;;;;;;;;;6277902;22;20012;-94
2023/05/21 00:52:12;;;;;;;7.70;3.10;;;;;;;;;;6274058;22;20022;-96
2023/05/21 00:54:38;;;;;;;4.93;3.25;;;;;;;;;;6276121;22;20025;-96
2023/05/21 00:57:04;;;;;;;5.63;3.30;;;;;;;;;;6275665;22;20000;-96
2023/05/21 00:59:30;;;;;;;5.88;3.38;;;;;;;;;;6276921;22;20026;-96
2023/05/21 01:01:55;;;;;;;6.40;3.30;;;;;;;;;;6277396;22;20003;-94
2023/05/21 01:04:24;;;;;;;9.02;3.63;;;;;;;;;;6277094;22;20087;-96
2023/05/21 01:06:49;;;;;;;5.68;3.40;;;;;;;;;;6276905;22;20051;-96
2023/05/21 01:09:15;;;;;;;6.00;2.85;;;;;;;;;;6275773;22;20027;-95
2023/05/21 01:11:43;;;;;;;8.30;3.50;;;;;;;;;;6275823;22;20084;-96
2023/05/21 01:14:09;;;;;;;7.63;3.13;;;;;;;;;;6276209;22;20008;-95
2023/05/21 01:16:39;;;;;;;7.13;3.58;;;;;;;;;;6277138;22;20004;-94
2023/05/21 01:19:05;;;;;;;6.32;3.60;;;;;;;;;;6276804;22;20126;-96
2023/05/21 01:21:34;;;;;;;6.57;3.38;;;;;;;;;;6275903;22;20004;-96
2023/05/21 01:24:01;;;;;;;6.95;3.22;;;;;;;;;;6277302;22;20117;-96
2023/05/21 01:26:27;;;;;;;6.43;3.42;;;;;;;;;;6276931;22;20008;-95
2023/05/21 01:28:52;;;;;;;13.38;3.67;;;;;;;;;;6276925;22;20011;-96
2023/05/21 01:31:30;;;;;;;6.57;3.53;;;;;;;;;;6276321;22;20292;-96
2023/05/21 01:33:56;;;;;;;7.07;3.58;;;;;;;;;;6276679;22;20008;-95
2023/05/21 01:36:25;;;;;;;6.50;3.92;;;;;;;;;;6276831;22;20011;-95
2023/05/21 01:38:59;;;;;;;6.40;3.85;;;;;;;;;;6276803;22;20031;-96
2023/05/21 01:41:26;;;;;;;5.13;3.70;;;;;;;;;;6275978;22;20011;-95
2023/05/21 01:43:52;;;;;;;7.88;4.28;;;;;;;;;;6273823;22;20003;-96
2023/05/21 01:46:20;;;;;;;6.88;3.85;;;;;;;;;;6274745;22;20054;-95
2023/05/21 01:48:46;;;;;;;9.32;3.88;;;;;;;;;;6275324;22;20016;-96
2023/05/21 01:51:11;;;;;;;6.43;3.72;;;;;;;;;;6273556;22;20003;-96
2023/05/21 01:53:39;;;;;;;8.52;4.53;;;;;;;;;;6276412;22;20019;-96
2023/05/21 01:56:05;;;;;;;9.75;4.45;;;;;;;;;;6274885;22;20065;-95
2023/05/21 01:58:30;;;;;;;7.18;4.25;;;;;;;;;;6273782;22;19996;-94
2023/05/21 02:00:55;;;;;;;8.55;4.57;;;;;;;;;;6276926;22;20062;-94
2023/05/21 02:03:22;;;;;;;8.35;5.22;;;;;;;;;;6273600;22;20007;-95
2023/05/21 02:05:50;;;;;;;9.23;4.85;;;;;;;;;;6274004;22;20008;-94
2023/05/21 02:08:18;;;;;;;7.25;4.65;;;;;;;;;;6276175;22;20050;-96
2023/05/21 02:10:43;;;;;;;8.90;4.60;;;;;;;;;;6275088;22;20003;-96
2023/05/21 02:13:09;;;;;;;7.68;4.38;;;;;;;;;;6277096;22;20063;-96
2023/05/21 02:15:34;;;;;;;8.68;4.25;;;;;;;;;;6277826;22;20004;-96
2023/05/21 02:18:00;;;;;;;7.35;4.20;;;;;;;;;;6278463;22;20287;-95
2023/05/21 02:20:25;;;;;;;8.60;5.00;;;;;;;;;;6276751;22;20022;-96
2023/05/21 02:22:50;;;;;;;8.07;4.75;;;;;;;;;;6277089;22;19996;-95
2023/05/21 02:25:17;;;;;;;8.98;4.63;;;;;;;;;;6275611;22;20003;-95
2023/05/21 02:27:42;;;;;;;8.88;4.93;;;;;;;;;;6274095;22;20035;-95
2023/05/21 02:30:10;;;;;;;7.45;4.43;;;;;;;;;;6278504;22;20010;-96
2023/05/21 02:32:36;;;;;;;8.30;5.32;;;;;;;;;;6276055;22;20004;-96
2023/05/21 02:35:02;;;;;;;8.82;5.05;;;;;;;;;;6277864;22;20034;-94
2023/05/21 02:37:29;;;;;;;13.02;4.97;;;;;;;;;;6277637;22;20008;-96
2023/05/21 02:39:54;;;;;;;9.38;5.03;;;;;;;;;;6277913;22;20045;-95
2023/05/21 02:42:23;;;;;;;12.18;5.15;;;;;;;;;;6276600;22;20004;-96
2023/05/21 02:44:51;;;;;;;9.40;5.18;;;;;;;;;;6274669;22;20239;-96
2023/05/21 02:47:21;;;;;;;9.38;4.82;;;;;;;;;;6276158;22;20008;-96
2023/05/21 02:49:48;;;;;;;10.60;5.40;;;;;;;;;;6276599;22;20000;-96
2023/05/21 02:52:13;;;;;;;9.82;5.50;;;;;;;;;;6276580;22;19992;-96
2023/05/21 02:54:38;;;;;;;7.72;4.65;;;;;;;;;;6274479;22;20015;-95
2023/05/21 02:57:06;;;;;;;7.60;4.97;;;;;;;;;;6275102;22;20000;-96
2023/05/21 02:59:32;;;;;;;8.77;5.13;;;;;;;;;;6273359;22;19996;-96
2023/05/21 03:02:00;;;;;;;9.90;5.28;;;;;;;;;;6276408;22;20476;-96
2023/05/21 03:04:27;;;;;;;11.75;5.97;;;;;;;;;;6277272;22;20466;-96
2023/05/21 03:06:53;;;;;;;8.57;5.38;;;;;;;;;;6275493;22;20003;-96
2023/05/21 03:09:20;;;;;;;8.98;5.30;;;;;;;;;;6272889;22;20016;-96
2023/05/21 03:11:45;;;;;;;12.15;5.55;;;;;;;;;;6273240;22;19996;-94
2023/05/21 03:14:11;;;;;;;8.77;5.70;;;;;;;;;;6272161;22;20018;-96
2023/05/21 03:16:40;;;;;;;9.23;4.50;;;;;;;;;;6270650;22;20311;-96
2023/05/21 03:19:06;;;;;;;8.88;4.97;;;;;;;;;;6273064;22;20007;-96
2023/05/21 03:21:32;;;;;;;9.98;5.43;;;;;;;;;;6273002;22;19996;-94
2023/05/21 03:23:58;;;;;;;9.50;5.35;;;;;;;;;;6273038;22;20026;-96
2023/05/21 03:26:26;;;;;;;7.28;4.60;;;;;;;;;;6272779;22;19992;-95
2023/05/21 03:28:52;;;;;;;9.95;5.30;;;;;;;;;;6272136;22;20016;-96
2023/05/21 03:31:17;;;;;;;7.93;4.45;;;;;;;;;;6272255;22;20103;-95
2023/05/21 03:33:42;;;;;;;10.32;5.20;;;;;;;;;;6273278;22;20446;-96
2023/05/21 03:36:08;;;;;;;10.52;5.32;;;;;;;;;;6272559;22;20000;-96
2023/05/21 03:38:33;;;;;;;11.15;6.22;;;;;;;;;;6272751;22;20010;-96
2023/05/21 03:40:58;;;;;;;13.68;5.75;;;;;;;;;;6271996;22;20000;-95
2023/05/21 03:43:23;;;;;;;10.75;5.68;;;;;;;;;;6271160;22;20008;-95
2023/05/21 03:45:49;;;;;;;11.73;5.75;;;;;;;;;;6272530;22;20079;-95
2023/05/21 03:48:14;;;;;;;8.25;5.72;;;;;;;;;;6272692;22;20019;-95
2023/05/21 03:50:40;;;;;;;11.95;5.78;;;;;;;;;;6273356;22;20486;-96
2023/05/21 03:53:05;;;;;;;11.52;5.30;;;;;;;;;;6273114;22;20045;-95
2023/05/21 03:55:30;;;;;;;9.27;5.50;;;;;;;;;;6271611;22;20015;-95
2023/05/21 03:57:56;;;;;;;9.85;5.70;;;;;;;;;;6272250;22;20099;-95
2023/05/21 04:00:21;;;;;;;9.68;5.50;;;;;;;;;;6269306;22;20438;-94
2023/05/21 04:02:46;;;;;;;10.40;5.40;;;;;;;;;;6271760;22;20039;-95
2023/05/21 04:05:14;;;;;;;9.60;5.28;;;;;;;;;;6272139;22;20023;-95
2023/05/21 04:07:39;;;;;;;8.65;5.32;;;;;;;;;;6272251;22;20490;-96
2023/05/21 04:10:05;;;;;;;8.10;5.40;;;;;;;;;;6274719;22;20023;-95
2023/05/21 04:12:30;;;;;;;8.70;5.10;;;;;;;;;;6272817;22;20054;-95
2023/05/21 04:14:56;;;;;;;9.45;5.35;;;;;;;;;;6272766;22;19991;-96
2023/05/21 04:17:21;;;;;;;11.30;5.45;;;;;;;;;;6274226;22;20071;-95
2023/05/21 04:19:46;;;;;;;10.77;5.60;;;;;;;;;;6273398;22;20000;-95
2023/05/21 04:22:11;;;;;;;7.32;5.07;;;;;;;;;;6273486;22;20454;-96
2023/05/21 04:24:37;;;;;;;11.82;5.15;;;;;;;;;;6273955;22;19996;-95
2023/05/21 04:27:02;;;;;;;8.73;4.78;;;;;;;;;;6271844;22;20000;-95
2023/05/21 04:29:28;;;;;;;9.23;5.72;;;;;;;;;;6274122;22;20094;-95
2023/05/21 04:31:54;;;;;;;8.65;5.00;;;;;;;;;;6273642;22;19996;-94
2023/05/21 04:34:19;;;;;;;11.35;5.10;;;;;;;;;;6274200;22;20004;-95
2023/05/21 04:36:45;;;;;;;11.63;5.20;;;;;;;;;;6273683;22;20003;-96
2023/05/21 04:39:13;;;;;;;10.45;5.25;;;;;;;;;;6272437;22;20003;-95
2023/05/21 04:41:39;;;;;;;9.30;6.03;;;;;;;;;;6274468;22;20514;-95
2023/05/21 04:44:07;;;;;;;11.18;4.88;;;;;;;;;;6270918;22;20032;-95
2023/05/21 04:46:33;;;;;;;7.57;4.50;;;;;;;;;;6273075;22;20004;-95
2023/05/21 04:49:01;;;;;;;11.25;5.22;;;;;;;;;;6274920;22;20101;-96
2023/05/21 04:51:29;;;;;;;9.43;5.65;;;;;;;;;;6275590;22;20611;-96
2023/05/21 04:53:54;;;;;;;8.88;5.07;;;;;;;;;;6275074;22;20006;-96
2023/05/21 04:56:25;;;;;;;11.02;4.93;;;;;;;;;;6274575;22;20032;-95
2023/05/21 04:58:53;;;;;;;9.20;4.72;;;;;;;;;;6275078;22;20007;-96
2023/05/21 05:01:18;;;;;;;12.02;5.88;;;;;;;;;;6274892;22;20007;-95
2023/05/21 05:03:47;;;;;;;10.10;5.57;;;;;;;;;;6275475;22;20018;-96
2023/05/21 05:06:13;;;;;;;9.80;5.75;;;;;;;;;;6274454;22;20031;-95
2023/05/21 05:08:40;;;;;;;10.68;5.28;;;;;;;;;;6274616;22;20007;-96
2023/05/21 05:11:09;;;;;;;9.27;5.13;;;;;;;;;;6275039;22;19996;-95
2023/05/21 05:13:37;;;;;;;13.70;5.85;;;;;;;;;;6275343;22;20011;-96
2023/05/21 05:16:06;;;;;;;8.60;5.15;;;;;;;;;;6272813;22;20347;-95
2023/05/21 05:18:32;;;;;;;9.77;5.47;;;;;;;;;;6274256;22;20083;-96
2023/05/21 05:20:58;;;;;;;7.50;4.50;;;;;;;;;;6275393;22;20974;-96
2023/05/21 05:23:23;;;;;;;10.68;5.25;;;;;;;;;;6274601;22;20011;-96
2023/05/21 05:25:51;;;;;;;10.52;5.47;;;;;;;;;;6274831;22;20069;-95
2023/05/21 05:28:16;;;;;;;8.07;4.85;;;;;;;;;;6275060;22;20387;-95
2023/05/21 05:30:42;;;;;;;8.30;5.55;;;;;;;;;;6273714;22;20042;-96
2023/05/21 05:33:07;;;;;;;8.70;5.35;;;;;;;;;;6274174;22;20000;-95
2023/05/21 05:35:32;;;;;;;13.43;5.35;;;;;;;;;;6274109;22;20002;-96
2023/05/21 05:37:58;;;;;;;14.57;5.97;;;;;;;;;;6274158;22;20056;-95
2023/05/21 05:40:23;;;;;;;11.48;6.10;;;;;;;;;;6273749;22;20011;-95
2023/05/21 05:42:51;;;;;;;9.45;5.07;;;;;;;;;;6273033;22;20080;-94
2023/05/21 05:45:16;;;;;;;9.00;5.75;;;;;;;;;;6273776;22;20011;-96
2023/05/21 05:47:42;;;;;;;10.88;5.38;;;;;;;;;;6273268;22;20056;-95
2023/05/21 05:50:07;;;;;;;7.32;4.25;;;;;;;;;;6274024;22;20054;-95
2023/05/21 05:52:32;;;;;;;8.65;4.68;;;;;;;;;;6272673;22;20061;-96
2023/05/21 05:54:58;;;;;;;9.88;5.30;;;;;;;;;;6273265;22;20018;-95
2023/05/21 05:57:23;;;;;;;8.82;5.65;;;;;;;;;;6273671;22;20004;-96
2023/05/21 05:59:48;;;;;;;9.77;5.20;;;;;;;;;;6273916;22;20384;-95
2023/05/21 06:02:13;;;;;;;11.05;6.05;;;;;;;;;;6273478;22;20354;-95
2023/05/21 06:04:39;;;;;;;8.70;5.07;;;;;;;;;;6273054;22;20003;-95
2023/05/21 06:07:04;;;;;;;9.30;4.93;;;;;;;;;;6274272;22;19999;-96
2023/05/21 06:09:30;;;;;;;8.73;5.63;;;;;;;;;;6275216;22;20012;-96
2023/05/21 06:11:55;;;;;;;9.57;5.28;;;;;;;;;;6275277;22;20034;-95
2023/05/21 06:14:20;;;;;;;11.95;6.03;;;;;;;;;;6275858;22;20015;-96
2023/05/21 06:16:49;;;;;;;13.05;6.28;;;;;;;;;;6272636;22;20004;-96
2023/05/21 06:19:16;;;;;;;7.45;4.90;;;;;;;;;;6275801;22;20007;-96
2023/05/21 06:21:44;;;;;;;9.10;4.50;;;;;;;;;;6275891;22;19995;-96
2023/05/21 06:24:10;;;;;;;10.38;5.57;;;;;;;;;;6272898;22;20003;-95
2023/05/21 06:26:35;;;;;;;10.23;5.25;;;;;;;;;;6276765;22;20481;-95
2023/05/21 06:29:01;;;;;;;9.27;5.57;;;;;;;;;;6273749;22;20012;-95
2023/05/21 06:31:28;;;;;;;10.48;4.80;;;;;;;;;;6272866;22;20423;-96
2023/05/21 06:33:54;;;;;;;8.82;5.50;;;;;;;;;;6274994;22;20010;-95
2023/05/21 06:36:20;;;;;;;8.82;4.80;;;;;;;;;;6272428;22;20004;-96
2023/05/21 06:38:50;;;;;;;8.35;5.82;;;;;;;;;;6276080;22;20010;-96
2023/05/21 06:41:15;;;;;;;11.43;5.40;;;;;;;;;;6276881;22;20035;-95
2023/05/21 06:43:59;;;;;;;15.70;6.00;;;;;;;;;;6276029;22;20004;-96
2023/05/21 06:46:34;;;;;;;10.93;5.75;;;;;;;;;;6271539;22;19996;-96
2023/05/21 06:49:05;;;;;;;10.15;5.97;;;;;;;;;;6274383;22;20014;-95
2023/05/21 06:51:31;;;;;;;8.25;4.75;;;;;;;;;;6275796;22;20000;-96
2023/05/21 06:54:14;;;;;;;8.15;4.80;;;;;;;;;;6275423;22;20418;-96
2023/05/21 06:57:32;;;;;;;9.77;5.13;;;;;;;;;;6276094;22;19995;-96
2023/05/21 07:00:07;;;;;;;;;;;;;;;;;;;;;
2023/05/21 07:02:41;;;;;;;9.07;5.10;;;;;;;;;;6275023;22;20082;-96
2023/05/21 07:05:19;;;;;;;10.65;6.03;;;;;;;;;;6276090;22;20014;-95
2023/05/21 07:10:41;;;;;;;8.35;5.25;;;;;;;;;;6267352;22;20019;-96
2023/05/21 07:13:08;;;;;;;9.70;6.13;;;;;;;;;;6276755;22;20007;-96
2023/05/21 07:15:50;;;;;;;11.63;5.65;;;;;;;;;;6276020;22;20439;-96
2023/05/21 07:18:19;;;;;;;8.93;4.82;;;;;;;;;;6275748;22;20006;-96
2023/05/21 07:21:04;;;;;;;9.63;5.93;;;;;;;;;;6274107;22;20011;-96
2023/05/21 07:23:50;;;;;;;12.90;7.05;;;;;;;;;;6274813;22;20003;-96
2023/05/21 07:26:29;;;;;;;15.05;6.80;;;;;;;;;;6275718;22;20008;-96
2023/05/21 07:29:15;;;;;;;10.90;5.00;;;;;;;;;;6273220;22;20011;-96
2023/05/21 07:31:42;;;;;;;11.65;6.80;;;;;;;;;;6275285;22;19999;-96
2023/05/21 07:34:31;;;;;;;15.27;6.50;;;;;;;;;;6273242;22;20015;-96
2023/05/21 07:36:59;;;;;;;11.70;6.35;;;;;;;;;;6275170;22;20402;-96
2023/05/21 07:39:27;;;;;;;11.25;6.78;;;;;;;;;;6273244;22;20134;-96
2023/05/21 07:41:57;;;;;;;12.75;6.78;;;;;;;;;;6274523;22;20000;-96
2023/05/21 07:44:30;;;;;;;11.15;6.32;;;;;;;;;;6273733;22;20011;-96
2023/05/21 07:50:07;;;;;;;12.52;6.32;;;;;;;;;;6276922;22;20015;-96
2023/05/21 07:55:35;;;;;;;16.58;6.35;;;;;;;;;;6277010;22;20438;-96
2023/05/21 07:58:03;;;;;;;15.20;6.70;;;;;;;;;;6301227;22;20030;-96
2023/05/21 08:01:04;;;;;;;13.65;7.75;;;;;;;;;;6276367;22;19995;-96
2023/05/21 08:04:08;;;;;;;13.60;6.07;;;;;;;;;;6275153;22;20016;-96
2023/05/21 08:09:32;;;;;;;11.60;6.68;;;;;;;;;;6265234;22;20018;-96
2023/05/21 08:11:58;;;;;;;13.60;6.40;;;;;;;;;;6275572;22;20020;-96
2023/05/21 08:14:53;;;;;;;;;;;;;;;;;;;;;
2023/05/21 08:17:21;;;;;;;16.00;7.55;;;;;;;;;;6275808;22;20071;-96
2023/05/21 08:20:04;;;;;;;16.30;7.75;;;;;;;;;;6274699;22;20004;-96
2023/05/21 08:22:48;;;;;;;15.43;8.07;;;;;;;;;;6274129;22;20027;-96
2023/05/21 08:25:25;;;;;;;;;;;;;;;;;;;;;
2023/05/21 08:30:50;;;;;;;15.75;7.60;;;;;;;;;;6259149;22;20011;-96
2023/05/21 08:33:33;;;;;;;14.95;7.97;;;;;;;;;;6300085;22;20367;-96
2023/05/21 08:39:55;;;;;;;;;;;;;;;;;;;;;
2023/05/21 08:42:27;;;;;;;13.70;7.85;;;;;;;;;;6265632;22;20103;-96
2023/05/21 08:45:23;;;;;;;;;;;;;;;;;;;;;
2023/05/21 08:48:00;;;;;;;15.52;7.43;;;;;;;;;;6275483;22;20207;-96
2023/05/21 08:53:41;;;;;;;;;;;;;;;;;;;;;
2023/05/21 08:56:46;;;;;;;;;;;;;;;;;;;;;
2023/05/21 09:05:38;;;;;;;;;;;;;;;;;;;;;
2023/05/21 09:08:17;;;;;;;15.15;8.75;;;;;;;;;;6274092;22;20087;-96
2023/05/21 09:10:50;;;;;;;15.45;7.90;;;;;;;;;;6300264;22;20027;-96
2023/05/21 09:13:32;;;;;;;14.70;7.28;;;;;;;;;;6284554;22;20000;-96
2023/05/21 09:15:57;;;;;;;17.63;10.70;;;;;;;;;;6313140;22;20006;-96
2023/05/21 09:26:14;;;;;;;17.95;9.15;;;;;;;;;;6219739;22;20024;-96
2023/05/21 12:27:43;;;;;;;14.02;8.32;;;;;;;;;;6197441;22;22099;-92
2023/05/21 12:30:29;;;;;;;21.23;10.25;;;;;;;;;;6235550;23;20083;-93
2023/05/21 12:33:24;;;;;;;18.30;10.70;;;;;;;;;;6237952;23;20068;-93
2023/05/21 12:35:51;;;;;;;19.38;10.70;;;;;;;;;;6236755;23;20048;-94
2023/05/21 12:38:38;;;;;;;17.27;8.52;;;;;;;;;;6207912;23;20013;-94
2023/05/21 12:41:18;;;;;;;20.52;10.50;;;;;;;;;;6209623;23;20015;-94
2023/05/21 12:43:52;;;;;;;16.38;9.20;;;;;;;;;;6239667;23;20005;-95
2023/05/21 12:46:27;;;;;;;18.42;8.98;;;;;;;;;;6213521;23;20008;-94
2023/05/21 12:49:32;;;;;;;18.35;8.27;;;;;;;;;;6238192;23;20411;-95
2023/05/21 12:52:23;;;;;;;20.85;9.52;;;;;;;;;;6238461;23;20009;-94
2023/05/21 12:54:50;;;;;;;18.20;9.77;;;;;;;;;;6212239;23;20004;-94
2023/05/21 12:57:35;;;;;;;19.95;9.30;;;;;;;;;;6210704;23;20008;-93
2023/05/21 13:00:05;;;;;;;21.42;10.85;;;;;;;;;;6212781;23;20012;-94
2023/05/21 13:02:52;;;;;;;16.77;7.88;;;;;;;;;;6232588;23;20004;-94
2023/05/21 13:05:40;;;;;;;23.55;10.73;;;;;;;;;;6211189;23;20008;-94
2023/05/21 13:08:15;;;;;;;14.73;7.45;;;;;;;;;;6240830;22;20015;-94
2023/05/21 13:11:10;;;;;;;15.10;8.73;;;;;;;;;;6299321;22;19999;-93
2023/05/21 13:13:55;;;;;;;18.65;9.48;;;;;;;;;;6299140;22;20003;-94
2023/05/21 13:16:22;;;;;;;21.27;9.32;;;;;;;;;;6297380;22;20003;-94
2023/05/21 13:18:53;;;;;;;18.98;10.50;;;;;;;;;;6298062;22;20004;-94
2023/05/21 13:21:44;;;;;;;16.25;8.52;;;;;;;;;;6299867;22;20023;-93
2023/05/21 13:24:23;;;;;;;17.35;10.15;;;;;;;;;;6298591;22;20004;-95
2023/05/21 13:26:48;;;;;;;13.98;7.53;;;;;;;;;;6245227;22;20007;-95
2023/05/21 13:29:16;;;;;;;15.90;9.27;;;;;;;;;;6296543;22;20028;-94
2023/05/21 13:32:04;;;;;;;19.27;9.35;;;;;;;;;;6295540;22;19998;-94
2023/05/21 13:34:52;;;;;;;17.45;8.75;;;;;;;;;;6297042;22;19995;-94
2023/05/21 13:37:19;;;;;;;19.92;9.90;;;;;;;;;;6296433;22;20004;-95
2023/05/21 13:39:46;;;;;;;17.25;10.20;;;;;;;;;;6294052;22;19988;-94
2023/05/21 13:42:13;;;;;;;22.02;12.73;;;;;;;;;;6271816;22;20054;-94
2023/05/21 13:45:20;;;;;;;17.55;9.57;;;;;;;;;;6297400;22;20004;-95
2023/05/21 13:48:00;;;;;;;15.60;9.15;;;;;;;;;;6290126;22;20000;-94
2023/05/21 13:50:35;;;;;;;20.02;9.15;;;;;;;;;;6297636;22;20067;-94
2023/05/21 13:53:20;;;;;;;20.73;8.85;;;;;;;;;;6293273;22;20000;-94
2023/05/21 13:56:01;;;;;;;18.63;9.10;;;;;;;;;;6297859;22;20027;-95
2023/05/21 13:58:53;;;;;;;20.35;9.80;;;;;;;;;;6294268;22;20000;-95
2023/05/21 14:01:18;;;;;;;26.05;12.45;;;;;;;;;;6295267;22;20008;-94
2023/05/21 14:04:05;;;;;;;17.10;10.10;;;;;;;;;;6270179;22;20004;-94
2023/05/21 14:07:04;;;;;;;17.98;9.40;;;;;;;;;;6298449;22;20026;-94
2023/05/21 14:09:41;;;;;;;17.92;8.80;;;;;;;;;;6297534;22;20016;-94
2023/05/21 14:12:12;;;;;;;15.40;8.68;;;;;;;;;;6297510;22;20018;-95
2023/05/21 14:14:41;;;;;;;16.03;8.23;;;;;;;;;;6296325;22;20026;-95
2023/05/21 14:17:26;;;;;;;17.08;8.98;;;;;;;;;;6294850;22;20022;-95
2023/05/21 14:25:31;;;;;;;18.42;9.00;;;;;;;;;;6298751;22;20022;-96
2023/05/21 14:28:07;;;;;;;17.33;8.20;;;;;;;;;;6268522;22;20011;-96
2023/05/21 14:30:56;;;;;;;19.48;10.57;;;;;;;;;;6205077;22;20019;-96
2023/05/21 14:36:45;;;;;;;20.52;10.90;;;;;;;;;;6267304;22;20023;-96
2023/05/21 14:39:10;;;;;;;18.00;6.20;;;;;;;;;;6225895;23;20488;-96
2023/05/21 14:45:07;;;;;;;17.27;8.65;;;;;;;;;;6138453;23;20716;-96
2023/05/21 14:47:46;;;;;;;19.30;9.05;;;;;;;;;;6229664;22;20018;-95
2023/05/21 14:50:17;;;;;;;21.00;10.15;;;;;;;;;;6264370;22;20024;-96
2023/05/21 14:55:27;;;;;;;18.77;9.18;;;;;;;;;;6298922;22;20003;-95
2023/05/21 14:58:24;;;;;;;15.52;8.20;;;;;;;;;;6292987;22;20011;-95
2023/05/21 15:04:55;;;;;;;21.10;10.35;;;;;;;;;;6303606;22;20046;-95
2023/05/21 15:07:42;;;;;;;16.67;10.05;;;;;;;;;;6298280;22;20079;-95
2023/05/21 15:10:15;;;;;;;20.70;10.50;;;;;;;;;;6311628;22;19999;-95
2023/05/21 15:12:41;;;;;;;18.73;9.40;;;;;;;;;;6360183;22;20077;-94
2023/05/21 15:15:27;;;;;;;18.02;10.52;;;;;;;;;;6361155;22;20345;-95
2023/05/21 15:18:37;;;;;;;18.50;10.52;;;;;;;;;;6351666;22;19995;-95
2023/05/21 15:21:26;;;;;;;20.58;10.43;;;;;;;;;;6329846;22;19987;-95
2023/05/21 15:24:11;;;;;;;19.42;9.68;;;;;;;;;;6328373;22;20006;-95
2023/05/21 15:26:42;;;;;;;18.75;10.05;;;;;;;;;;6329108;22;19999;-95
2023/05/21 15:29:31;;;;;;;16.38;8.57;;;;;;;;;;6326994;22;20007;-95
2023/05/21 15:32:05;;;;;;;18.70;8.93;;;;;;;;;;6330451;22;20003;-94
2023/05/21 15:35:11;;;;;;;22.75;11.45;;;;;;;;;;6329488;22;19983;-94
2023/05/21 15:37:50;;;;;;;20.27;9.88;;;;;;;;;;6300602;22;20019;-95
2023/05/21 15:40:39;;;;;;;16.25;9.80;;;;;;;;;;6330379;22;20398;-95
2023/05/21 15:43:24;;;;;;;18.45;9.73;;;;;;;;;;6325067;22;19994;-94
2023/05/21 15:46:02;;;;;;;22.15;10.48;;;;;;;;;;6302038;22;19992;-95
2023/05/21 15:48:32;;;;;;;21.17;11.98;;;;;;;;;;6328388;22;20055;-94
2023/05/21 15:51:06;;;;;;;22.80;10.60;;;;;;;;;;6327245;22;20007;-95
2023/05/21 15:56:55;;;;;;;22.45;11.40;;;;;;;;;;6258211;22;20052;-95
2023/05/21 15:59:20;;;;;;;17.70;9.98;;;;;;;;;;6302275;22;20003;-95
2023/05/21 16:02:29;;;;;;;16.05;8.63;;;;;;;;;;6327914;22;20039;-94
2023/05/21 16:04:54;;;;;;;22.80;10.10;;;;;;;;;;6330701;22;20133;-94
2023/05/21 16:10:16;;;;;;;24.45;12.18;;;;;;;;;;6299978;22;20023;-94
2023/05/21 16:13:06;;;;;;;18.17;10.63;;;;;;;;;;6300083;22;20011;-95
2023/05/21 16:15:37;;;;;;;21.30;12.10;;;;;;;;;;6300087;22;20004;-94
2023/05/21 16:20:58;;;;;;;23.20;10.95;;;;;;;;;;6269134;22;20039;-95
2023/05/21 16:23:23;;;;;;;18.00;9.35;;;;;;;;;;6261696;22;20488;-94
2023/05/21 16:26:11;;;;;;;20.00;10.13;;;;;;;;;;6268635;22;20038;-94
2023/05/21 16:28:36;;;;;;;18.58;10.40;;;;;;;;;;6281316;22;20027;-94
2023/05/21 16:31:09;;;;;;;20.27;9.57;;;;;;;;;;6298546;22;20031;-93
2023/05/21 16:33:36;;;;;;;22.73;12.27;;;;;;;;;;6298704;22;20007;-94
2023/05/21 16:36:16;;;;;;;18.27;10.25;;;;;;;;;;6300050;22;20002;-95
2023/05/21 16:38:49;;;;;;;16.33;9.25;;;;;;;;;;6284219;22;20192;-95
2023/05/21 16:41:58;;;;;;;17.63;9.13;;;;;;;;;;6298600;22;20012;-94
2023/05/21 16:44:33;;;;;;;21.48;10.80;;;;;;;;;;6299206;22;20019;-95
2023/05/21 16:47:03;;;;;;;17.75;9.73;;;;;;;;;;6300031;22;20000;-95
2023/05/21 16:49:34;;;;;;;16.60;9.60;;;;;;;;;;6296791;22;20042;-94
2023/05/21 16:52:22;;;;;;;21.83;10.27;;;;;;;;;;6299134;22;20004;-95
2023/05/21 16:55:30;;;;;;;17.67;10.23;;;;;;;;;;6299544;22;19988;-94
2023/05/21 16:58:26;;;;;;;17.30;10.25;;;;;;;;;;6296246;22;20010;-95
2023/05/21 17:01:03;;;;;;;19.67;9.70;;;;;;;;;;6297223;22;19999;-94
2023/05/21 17:03:31;;;;;;;17.92;8.82;;;;;;;;;;6296417;22;20030;-95
2023/05/21 17:06:06;;;;;;;21.35;9.45;;;;;;;;;;6296393;22;20006;-95
2023/05/21 17:08:42;;;;;;;14.73;8.00;;;;;;;;;;6289411;22;20089;-94
2023/05/21 17:14:32;;;;;;;18.52;9.20;;;;;;;;;;6235154;22;20004;-95
2023/05/21 17:16:59;;;;;;;16.65;9.38;;;;;;;;;;6296501;22;20007;-94
2023/05/21 17:19:29;;;;;;;17.58;8.15;;;;;;;;;;6272430;22;20012;-94
2023/05/21 17:21:56;;;;;;;16.27;8.07;;;;;;;;;;6297165;22;20565;-95
2023/05/21 17:24:43;;;;;;;14.40;7.70;;;;;;;;;;6297146;22;20010;-94
2023/05/21 17:27:15;;;;;;;15.95;7.15;;;;;;;;;;6295967;22;19999;-95
2023/05/21 17:29:45;;;;;;;13.32;7.03;;;;;;;;;;6290842;22;20119;-96
2023/05/21 17:32:15;;;;;;;12.70;6.70;;;;;;;;;;6284740;22;19992;-96
2023/05/21 17:34:47;;;;;;;12.10;7.30;;;;;;;;;;6281841;22;20307;-96
2023/05/21 17:37:41;;;;;;;15.18;8.05;;;;;;;;;;6283172;22;20027;-95
2023/05/21 17:40:57;;;;;;;12.95;7.53;;;;;;;;;;6281579;22;20007;-96
2023/05/21 17:44:04;;;;;;;;;;;;;;;;;;;;;
2023/05/21 17:46:56;;;;;;;13.75;6.47;;;;;;;;;;6280089;22;20434;-96
2023/05/21 18:01:58;;;;;;;;;;;;;;;;;;;;;
2023/05/21 18:07:56;;;;;;;;;;;;;;;;;;;;;
2023/05/21 18:17:14;;;;;;;10.82;6.05;;;;;;;;;;6041870;23;20003;-96
2023/05/21 18:22:48;;;;;;;14.50;5.95;;;;;;;;;;6134887;23;19943;-95
2023/05/21 18:26:03;;;;;;;11.88;6.22;;;;;;;;;;6150305;23;20013;-96
2023/05/21 18:29:09;;;;;;;12.75;6.07;;;;;;;;;;6198312;23;20096;-95
2023/05/21 18:32:15;;;;;;;15.45;5.97;;;;;;;;;;6171694;23;20001;-96
2023/05/21 18:35:06;;;;;;;13.05;6.30;;;;;;;;;;6188246;22;20059;-95
2023/05/21 18:38:08;;;;;;;;;;;;;;;;;;;;;
2023/05/21 18:56:51;;;;;;;10.30;5.63;;;;;;;;;;6341124;22;20069;-96
2023/05/21 18:59:23;;;;;;;11.30;5.65;;;;;;;;;;6328558;22;20040;-96
2023/05/21 19:01:49;;;;;;;11.75;6.53;;;;;;;;;;6292578;22;20053;-95
2023/05/21 19:05:07;;;;;;;;;;;;;;;;;;;;;
2023/05/21 19:07:40;;;;;;;;;;;;;;;;;;;;;
2023/05/21 19:10:31;;;;;;;;;;;;;;;;;;;;;
2023/05/21 19:13:07;;;;;;;9.00;4.78;;;;;;;;;;6323366;22;19995;-96
2023/05/21 19:18:46;;;;;;;12.48;5.57;;;;;;;;;;6221869;23;20096;-96
2023/05/21 19:21:26;;;;;;;11.98;6.07;;;;;;;;;;6198339;23;20001;-96
2023/05/21 19:24:01;;;;;;;12.48;5.50;;;;;;;;;;6290626;22;20076;-96
2023/05/21 19:26:28;;;;;;;12.00;5.82;;;;;;;;;;6318812;22;20010;-96
2023/05/21 19:29:09;;;;;;;;;;;;;;;;;;;;;
2023/05/21 19:34:40;;;;;;;14.90;5.35;;;;;;;;;;6320595;22;20010;-96
2023/05/21 19:37:06;;;;;;;13.00;6.07;;;;;;;;;;6318254;22;20003;-96
2023/05/21 19:39:50;;;;;;;11.82;5.50;;;;;;;;;;6315058;22;20011;-96
2023/05/21 19:42:18;;;;;;;12.55;6.22;;;;;;;;;;6304356;22;20422;-95
2023/05/21 19:44:46;;;;;;;14.10;5.85;;;;;;;;;;6304533;22;20146;-96
2023/05/21 19:47:22;;;;;;;9.80;5.53;;;;;;;;;;6302941;22;19999;-96
2023/05/21 19:53:30;;;;;;;14.10;6.03;;;;;;;;;;6306986;22;20003;-96
2023/05/21 19:59:35;;;;;;;;;;;;;;;;;;;;;
2023/05/21 20:05:42;;;;;;;11.52;5.20;;;;;;;;;;6130368;23;20066;-96
2023/05/21 20:08:10;;;;;;;12.63;6.05;;;;;;;;;;6279349;22;20007;-96
2023/05/21 20:10:35;;;;;;;14.65;5.97;;;;;;;;;;6304855;22;20000;-96
2023/05/21 20:13:25;;;;;;;14.55;6.40;;;;;;;;;;6307203;22;20006;-96
2023/05/21 20:16:18;;;;;;;12.73;6.10;;;;;;;;;;6305182;22;20010;-95
2023/05/21 20:19:02;;;;;;;12.70;5.80;;;;;;;;;;6286803;22;20003;-96
2023/05/21 20:21:28;;;;;;;12.13;5.47;;;;;;;;;;6309206;22;20007;-96
2023/05/21 20:23:53;;;;;;;15.25;6.57;;;;;;;;;;6307019;22;20019;-96
2023/05/21 20:26:20;;;;;;;16.17;6.57;;;;;;;;;;6307689;22;20073;-96
2023/05/21 20:28:48;;;;;;;14.98;6.95;;;;;;;;;;6306498;22;20034;-95
2023/05/21 20:31:14;;;;;;;11.10;6.25;;;;;;;;;;6305877;22;20039;-96